Time;durP1;ratioP1;P1;durP2;ratioP2;P2;SDS_P1;SDS_P2;PMS_P1;PMS_P2;Temp;Humidity;BMP_temperature;BMP_pressure;BME280_temperature;BME280_humidity;BME280_pressure;Samples;Min_cycle;Max_cycle;Signal;HPM_P1;HPM_P2
2022/01/25 00:27:41;;;;;;;123.75;48.70;;;;;;;4.02;73.37;103437.13;4973746;28;20479;-41
2022/01/25 00:32:47;;;;;;;128.60;47.70;;;;;;;4.03;73.57;103446.84;4973125;28;20074;-42
2022/01/25 00:35:12;;;;;;;117.93;46.78;;;;;;;3.95;73.38;103435.72;4973097;28;20475;-42
2022/01/25 00:37:38;;;;;;;127.47;49.15;;;;;;;3.96;73.95;103432.97;4972827;28;20037;-42
2022/01/25 00:40:04;;;;;;;131.40;50.15;;;;;;;3.96;73.63;103426.78;4973100;28;20034;-41
2022/01/25 00:42:30;;;;;;;133.40;50.28;;;;;;;4.08;73.38;103430.63;4955879;28;20499;-41
2022/01/25 00:44:55;;;;;;;125.03;47.22;;;;;;;4.11;73.28;103423.34;4972893;28;20018;-41
2022/01/25 00:47:21;;;;;;;132.75;49.85;;;;;;;4.08;72.35;103428.84;4973139;28;20122;-41
2022/01/25 00:49:51;;;;;;;130.38;50.13;;;;;;;4.03;73.23;103421.97;4972649;28;20173;-41
2022/01/25 00:52:21;;;;;;;125.57;49.55;;;;;;;4.02;72.74;103415.81;4957274;28;20039;-42
2022/01/25 00:54:48;;;;;;;136.73;51.42;;;;;;;4.07;73.02;103416.44;4972857;28;20034;-40
2022/01/25 00:57:14;;;;;;;138.50;51.30;;;;;;;4.09;72.65;103419.91;4973055;28;20502;-40
2022/01/25 00:59:40;;;;;;;131.60;48.92;;;;;;;4.03;72.89;103416.66;4972372;28;20039;-41
2022/01/25 01:02:11;;;;;;;132.02;47.90;;;;;;;4.06;72.50;103416.53;4936232;28;20027;-40
2022/01/25 01:04:37;;;;;;;132.07;48.95;;;;;;;4.00;73.53;103412.34;4964029;28;20483;-41
2022/01/25 01:07:06;;;;;;;128.60;47.90;;;;;;;4.00;73.08;103412.34;4972885;28;20050;-40
2022/01/25 01:09:34;;;;;;;136.75;50.00;;;;;;;3.97;73.49;103407.16;4972399;28;20023;-41
2022/01/25 01:12:08;;;;;;;;;;;;;;;3.95;73.64;103403.75;4973295;28;20058;-40
2022/01/25 01:31:15;;;;;;;134.65;50.05;;;;;;;3.99;73.12;103421.28;4966311;28;20406;-40
2022/01/25 01:34:05;;;;;;;136.40;49.53;;;;;;;4.02;72.94;103410.47;4972969;28;20128;-41
2022/01/25 01:39:44;;;;;;;136.02;48.85;;;;;;;4.02;73.28;103420.28;4945217;28;20175;-41
2022/01/25 01:44:54;;;;;;;136.60;48.55;;;;;;;3.96;73.25;103410.78;4976039;28;19964;-40
2022/01/25 01:47:25;;;;;;;140.50;51.35;;;;;;;3.94;73.54;103413.50;4976319;28;20213;-40
2022/01/25 01:49:51;;;;;;;142.73;51.22;;;;;;;3.87;73.31;103405.88;4975769;28;20042;-41
2022/01/25 01:52:16;;;;;;;143.13;53.03;;;;;;;3.87;73.99;103403.22;4976020;28;20030;-40
2022/01/25 01:54:42;;;;;;;144.00;53.65;;;;;;;3.85;74.38;103407.78;4975879;28;20027;-41
2022/01/25 01:57:08;;;;;;;140.15;52.65;;;;;;;3.79;74.49;103408.97;4959218;28;20377;-40
2022/01/25 01:59:33;;;;;;;144.35;55.05;;;;;;;3.83;74.36;103409.66;4958372;28;20114;-40
2022/01/25 02:02:00;;;;;;;144.35;52.05;;;;;;;3.89;74.24;103410.22;4958537;28;20498;-41
2022/01/25 02:04:26;;;;;;;143.90;52.15;;;;;;;3.91;73.81;103407.47;4976234;28;20039;-40
2022/01/25 02:06:51;;;;;;;145.00;51.65;;;;;;;3.96;73.54;103402.78;4976250;28;20031;-41
2022/01/25 02:09:17;;;;;;;147.43;54.03;;;;;;;3.88;73.80;103396.97;4971143;28;20046;-41
2022/01/25 02:11:42;;;;;;;140.57;52.10;;;;;;;3.84;74.66;103395.38;4976353;28;20550;-41
2022/01/25 02:14:11;;;;;;;144.98;51.88;;;;;;;3.89;74.23;103393.38;4976134;28;20061;-40
2022/01/25 02:24:37;;;;;;;142.02;53.10;;;;;;;3.91;74.30;103380.84;4961281;28;20155;-42
2022/01/25 02:27:03;;;;;;;140.75;52.97;;;;;;;3.90;74.04;103389.78;4975540;28;20026;-41
2022/01/25 02:29:29;;;;;;;147.35;52.47;;;;;;;3.85;74.34;103383.81;4957615;28;20154;-41
2022/01/25 02:31:55;;;;;;;149.27;54.10;;;;;;;3.83;74.07;103381.22;4957793;28;20038;-41
2022/01/25 02:34:21;;;;;;;141.95;51.75;;;;;;;3.90;73.93;103376.47;4975498;28;20473;-41
2022/01/25 02:36:55;;;;;;;143.63;54.05;;;;;;;3.90;73.90;103379.97;4975692;28;20494;-41
2022/01/25 02:39:20;;;;;;;141.07;53.40;;;;;;;3.87;74.47;103387.25;4975445;28;20037;-41
2022/01/25 02:41:45;;;;;;;155.50;54.13;;;;;;;3.87;74.51;103371.25;4975379;28;20035;-41
2022/01/25 02:44:12;;;;;;;152.00;52.28;;;;;;;3.89;74.69;103372.06;4974832;28;20111;-41
2022/01/25 02:49:05;;;;;;;145.60;52.58;;;;;;;3.77;75.55;103372.69;4974559;28;20134;-41
2022/01/25 02:51:33;;;;;;;148.77;54.35;;;;;;;3.86;74.81;103369.53;4975292;28;20066;-41
2022/01/25 02:53:59;;;;;;;152.20;54.72;;;;;;;3.83;74.78;103372.38;4974759;28;20058;-41
2022/01/25 02:56:25;;;;;;;148.18;52.55;;;;;;;3.90;74.37;103379.13;4974931;28;20382;-41
2022/01/25 02:58:51;;;;;;;156.27;56.38;;;;;;;3.87;74.30;103382.81;4957461;28;20035;-41
2022/01/25 03:01:17;;;;;;;150.52;53.45;;;;;;;3.87;75.24;103392.56;4975060;28;20033;-42
2022/01/25 03:03:43;;;;;;;149.25;53.42;;;;;;;3.89;74.58;103394.22;4974683;28;20113;-41
2022/01/25 03:06:08;;;;;;;147.68;53.38;;;;;;;3.87;75.14;103392.56;4975145;28;20110;-41
2022/01/25 03:08:34;;;;;;;152.07;54.67;;;;;;;3.89;75.16;103388.03;4974691;28;20039;-42
2022/01/25 03:11:00;;;;;;;152.07;54.28;;;;;;;3.94;74.76;103402.00;4974863;28;20038;-41
2022/01/25 03:13:32;;;;;;;155.48;54.13;;;;;;;3.95;73.94;103396.59;4974632;28;20105;-41
2022/01/25 03:16:17;;;;;;;147.77;53.30;;;;;;;3.94;74.58;103396.66;4958358;28;20030;-41
2022/01/25 03:18:46;;;;;;;149.80;53.20;;;;;;;3.94;74.09;103396.66;4973784;28;20046;-41
2022/01/25 03:21:19;;;;;;;144.23;52.15;;;;;;;3.90;74.84;103390.63;4974314;28;20035;-41
2022/01/25 03:23:45;;;;;;;141.80;51.72;;;;;;;3.96;73.98;103385.00;4974564;28;20462;-41
2022/01/25 03:26:10;;;;;;;146.68;52.30;;;;;;;3.94;74.55;103388.66;4974496;28;20027;-41
2022/01/25 03:28:35;;;;;;;156.70;55.30;;;;;;;3.95;74.65;103385.94;4974419;28;20019;-41
2022/01/25 03:31:01;;;;;;;155.30;55.25;;;;;;;3.94;74.14;103386.00;4974903;28;20101;-42
2022/01/25 03:33:26;;;;;;;150.55;53.67;;;;;;;3.88;74.95;103386.31;4974411;28;20368;-41
2022/01/25 03:35:52;;;;;;;147.20;51.50;;;;;;;3.91;74.43;103381.69;4974256;28;20038;-41
2022/01/25 03:38:17;;;;;;;155.52;55.17;;;;;;;3.93;74.09;103384.28;4973367;28;20027;-41
2022/01/25 03:40:44;;;;;;;146.52;51.35;;;;;;;3.93;74.60;103381.63;4968377;28;20110;-41
2022/01/25 03:43:10;;;;;;;154.95;53.10;;;;;;;3.87;74.76;103373.91;4956481;28;20062;-42
2022/01/25 03:45:38;;;;;;;145.30;53.22;;;;;;;3.90;74.92;103379.13;4974316;28;20029;-41
2022/01/25 03:50:35;;;;;;;154.82;52.60;;;;;;;3.92;74.74;103375.44;4974246;28;20054;-41
2022/01/25 03:53:00;;;;;;;159.32;54.75;;;;;;;3.97;75.01;103370.72;4974014;28;20084;-41
2022/01/25 03:55:26;;;;;;;153.43;53.00;;;;;;;3.99;74.73;103378.66;4974200;28;20591;-41
2022/01/25 03:57:51;;;;;;;155.77;53.88;;;;;;;3.97;74.29;103380.53;4956121;28;20034;-43
2022/01/25 04:00:17;;;;;;;154.63;53.08;;;;;;;3.90;75.39;103368.47;4973045;28;20137;-42
2022/01/25 04:02:51;;;;;;;149.40;51.83;;;;;;;3.92;75.27;103372.78;4973859;28;20131;-41
2022/01/25 04:05:22;;;;;;;155.65;53.35;;;;;;;3.97;74.93;103377.84;4974083;28;20047;-41
2022/01/25 04:07:50;;;;;;;161.50;53.10;;;;;;;3.99;74.34;103373.31;4974338;28;20027;-41
2022/01/25 04:10:19;;;;;;;158.10;54.78;;;;;;;3.97;74.56;103376.06;4967824;28;20033;-41
2022/01/25 04:12:48;;;;;;;164.80;57.67;;;;;;;3.99;74.55;103370.66;4973857;28;20400;-41
2022/01/25 04:15:13;;;;;;;157.95;53.88;;;;;;;4.00;74.28;103369.69;4973520;28;20110;-41
2022/01/25 04:17:42;;;;;;;167.40;56.00;;;;;;;3.99;74.67;103365.31;4956029;28;20021;-41
2022/01/25 04:20:21;;;;;;;162.45;53.83;;;;;;;3.97;73.71;103361.88;4952860;28;20038;-41
2022/01/25 04:25:30;;;;;;;169.02;55.35;;;;;;;3.94;74.91;103354.03;4973783;28;20045;-41
2022/01/25 04:27:56;;;;;;;165.20;54.80;;;;;;;3.86;73.82;103350.91;4973505;28;20027;-41
2022/01/25 04:30:21;;;;;;;171.23;57.17;;;;;;;3.93;73.96;103352.31;4973009;28;20093;-42
2022/01/25 04:32:51;;;;;;;163.15;53.22;;;;;;;3.98;73.53;103344.97;4973765;28;20435;-41
2022/01/25 04:54:26;;;;;;;171.32;54.50;;;;;;;3.86;73.39;103340.25;4973475;28;20458;-42
2022/01/25 05:02:00;;;;;;;169.30;55.08;;;;;;;3.98;73.37;103350.28;4972672;28;20145;-41
2022/01/25 05:04:30;;;;;;;162.52;52.90;;;;;;;4.00;73.32;103347.53;4973375;28;20041;-41
2022/01/25 05:07:04;;;;;;;165.55;56.08;;;;;;;4.00;72.80;103340.41;4973255;28;20039;-41
2022/01/25 05:09:32;;;;;;;168.30;54.88;;;;;;;3.96;73.26;103338.84;4968097;28;20053;-41
2022/01/25 05:11:58;;;;;;;170.13;54.78;;;;;;;3.93;72.93;103331.00;4958898;28;20045;-41
2022/01/25 05:14:31;;;;;;;174.85;57.78;;;;;;;3.93;73.68;103336.34;4977104;28;20102;-41
2022/01/25 05:17:00;;;;;;;171.13;55.05;;;;;;;3.93;73.36;103331.00;4977122;28;20127;-41
2022/01/25 05:24:44;;;;;;;167.57;53.90;;;;;;;3.64;74.68;103324.47;4976782;28;20121;-42
2022/01/25 05:27:12;;;;;;;169.90;55.42;;;;;;;3.69;74.59;103328.63;4976676;28;20033;-41
2022/01/25 05:29:38;;;;;;;174.88;57.15;;;;;;;3.71;74.66;103332.09;4959337;28;20404;-41
2022/01/25 05:32:03;;;;;;;174.02;53.10;;;;;;;3.81;73.88;103342.28;4976652;28;20122;-41
2022/01/25 05:34:29;;;;;;;169.50;53.17;;;;;;;3.85;73.38;103341.19;4976774;28;20475;-41
2022/01/25 05:36:54;;;;;;;166.40;56.22;;;;;;;3.78;74.26;103342.44;4959094;28;20037;-40
2022/01/25 05:39:28;;;;;;;165.07;53.90;;;;;;;3.85;73.42;103341.19;4976069;28;20031;-41
2022/01/25 05:41:57;;;;;;;162.32;53.50;;;;;;;3.87;72.95;103336.63;4972129;28;20035;-41
2022/01/25 05:44:36;;;;;;;173.25;55.25;;;;;;;3.80;74.01;103340.56;4976650;28;20038;-41
2022/01/25 05:47:05;;;;;;;156.18;52.67;;;;;;;3.81;73.23;103342.28;4975992;28;20105;-41
2022/01/25 05:49:36;;;;;;;160.13;53.88;;;;;;;3.84;73.42;103342.13;4975337;28;20053;-41
2022/01/25 05:52:04;;;;;;;154.40;52.83;;;;;;;3.93;72.52;103349.66;4959269;28;20041;-41
2022/01/25 05:54:29;;;;;;;;;;;;;;;3.90;73.19;103344.50;4975174;28;20031;-41
2022/01/25 05:56:55;;;;;;;161.93;53.58;;;;;;;3.87;73.31;103342.84;4976254;28;19921;-40
2022/01/25 05:59:20;;;;;;;168.35;55.22;;;;;;;3.79;73.96;103346.81;4958005;28;20023;-41
2022/01/25 06:01:46;;;;;;;172.95;53.80;;;;;;;3.81;73.45;103351.13;4975523;28;20039;-42
2022/01/25 06:04:12;;;;;;;162.60;53.25;;;;;;;3.87;73.56;103352.59;4965775;28;20070;-41
2022/01/25 06:06:37;;;;;;;170.30;55.25;;;;;;;3.88;73.65;103341.03;4971373;28;20039;-41
2022/01/25 06:09:03;;;;;;;164.38;53.83;;;;;;;3.92;72.91;103353.25;4956429;28;20035;-41
2022/01/25 06:11:28;;;;;;;168.52;54.75;;;;;;;3.90;72.90;103353.34;4968416;28;20130;-41
2022/01/25 06:13:53;;;;;;;170.88;54.22;;;;;;;3.96;72.86;103360.16;4956825;28;20042;-42
2022/01/25 06:16:19;;;;;;;168.25;54.83;;;;;;;3.94;72.85;103357.56;4973531;28;20035;-42
2022/01/25 06:18:45;;;;;;;173.07;56.60;;;;;;;3.92;73.20;103353.25;4973346;28;20098;-41
2022/01/25 06:21:10;;;;;;;172.48;56.60;;;;;;;3.86;73.17;103350.91;4955494;28;20462;-43
2022/01/25 06:23:35;;;;;;;175.32;53.10;;;;;;;3.90;73.22;103355.16;4950823;28;20034;-41
2022/01/25 06:26:01;;;;;;;172.50;54.30;;;;;;;3.83;73.54;103351.91;4969817;28;20487;-40
2022/01/25 06:28:26;;;;;;;159.27;51.95;;;;;;;3.90;73.36;103352.47;4971636;28;20038;-40
2022/01/25 06:30:51;;;;;;;166.38;52.67;;;;;;;3.93;72.88;103357.66;4972652;28;20126;-41
2022/01/25 06:33:17;;;;;;;165.30;54.10;;;;;;;3.95;72.46;103355.78;4971576;28;20506;-41
2022/01/25 06:37:20;;;;;;;153.00;52.50;;;;;;;3.94;72.31;103365.56;5023051;28;20387;-43
2022/01/25 06:39:46;;;;;;;157.65;53.75;;;;;;;3.88;72.53;103365.00;5019903;28;20494;-43
2022/01/25 06:42:11;;;;;;;171.60;56.67;;;;;;;3.76;73.62;103363.78;5024182;28;20389;-40
2022/01/25 06:44:37;;;;;;;155.50;50.42;;;;;;;3.79;73.58;103361.00;5006764;28;20030;-41
2022/01/25 06:47:03;;;;;;;156.23;53.70;;;;;;;3.87;73.07;103366.81;5025299;28;20029;-45
2022/01/25 06:49:29;;;;;;;160.50;54.63;;;;;;;3.89;72.72;103372.06;5021093;28;20059;-41
2022/01/25 06:51:54;;;;;;;166.07;53.08;;;;;;;3.93;72.71;103368.31;5025094;28;20378;-42
2022/01/25 06:54:20;;;;;;;161.90;52.85;;;;;;;3.95;72.79;103371.78;5029516;28;20125;-41
2022/01/25 06:56:45;;;;;;;160.77;55.05;;;;;;;3.93;72.26;103374.50;5028750;28;20026;-41
2022/01/25 06:59:11;;;;;;;157.90;52.60;;;;;;;3.91;72.00;103376.38;5028826;28;20430;-41
2022/01/25 07:01:36;;;;;;;154.25;51.35;;;;;;;3.89;72.18;103372.06;5028177;28;20025;-41
2022/01/25 07:04:01;;;;;;;158.02;52.72;;;;;;;3.81;72.42;103376.91;5025362;28;20029;-39
2022/01/25 07:06:27;;;;;;;163.82;54.20;;;;;;;3.76;72.69;103376.25;5027030;28;20069;-40
2022/01/25 07:08:53;;;;;;;162.32;55.65;;;;;;;3.84;72.68;103380.25;5026637;28;20033;-41
2022/01/25 07:11:19;;;;;;;148.98;51.30;;;;;;;3.94;71.67;103383.34;5027408;28;20482;-40
2022/01/25 07:13:46;;;;;;;149.57;51.53;;;;;;;3.89;71.88;103372.91;5026591;28;20065;-40
2022/01/25 07:16:11;;;;;;;160.25;52.75;;;;;;;3.83;71.89;103375.03;5025758;28;20120;-40
2022/01/25 07:18:36;;;;;;;156.48;53.13;;;;;;;3.84;72.43;103380.25;5027796;28;20140;-41
2022/01/25 07:21:02;;;;;;;146.15;48.17;;;;;;;3.76;71.51;103370.94;5026612;28;20037;-41
2022/01/25 07:23:28;;;;;;;154.82;52.40;;;;;;;3.69;72.39;103371.25;5024999;28;20022;-41
2022/01/25 07:25:53;;;;;;;149.85;53.25;;;;;;;3.57;72.46;103381.63;5018840;28;20137;-42
2022/01/25 07:28:18;;;;;;;158.85;52.95;;;;;;;3.58;73.27;103384.22;5007709;28;20030;-43
2022/01/25 07:30:44;;;;;;;163.43;52.72;;;;;;;3.59;72.68;103380.63;5007179;28;20088;-41
2022/01/25 07:33:09;;;;;;;150.35;53.03;;;;;;;3.64;72.83;103378.59;5006922;28;20068;-42
2022/01/25 07:35:36;;;;;;;151.75;53.10;;;;;;;3.59;73.78;103385.94;5005912;28;20052;-41
2022/01/25 07:38:02;;;;;;;153.43;50.95;;;;;;;3.60;74.25;103381.47;5005779;28;20114;-41
2022/01/25 07:40:28;;;;;;;165.15;54.20;;;;;;;3.56;74.30;103386.09;5007476;28;20022;-41
2022/01/25 07:42:54;;;;;;;151.38;51.65;;;;;;;3.48;73.54;103377.63;5002991;28;20029;-42
2022/01/25 07:45:20;;;;;;;154.88;51.97;;;;;;;3.46;74.44;103387.47;5007353;28;20422;-40
2022/01/25 07:47:46;;;;;;;162.25;53.95;;;;;;;3.41;73.38;103373.50;4996459;28;20510;-42
2022/01/25 07:50:11;;;;;;;159.50;52.72;;;;;;;3.44;74.02;103376.00;4994078;28;20030;-42
2022/01/25 07:52:37;;;;;;;151.23;52.17;;;;;;;3.44;73.63;103376.00;4993778;28;20509;-41
2022/01/25 07:55:04;;;;;;;157.25;52.78;;;;;;;3.48;74.42;103382.94;4992437;28;20068;-41
2022/01/25 07:57:29;;;;;;;164.50;52.95;;;;;;;3.60;74.41;103381.47;4991728;28;20054;-41
2022/01/25 07:59:57;;;;;;;160.65;51.70;;;;;;;3.62;73.68;103383.13;4993278;28;20486;-41
2022/01/25 08:02:23;;;;;;;158.90;54.20;;;;;;;3.68;73.55;103382.81;4983289;28;20395;-42
2022/01/25 08:04:48;;;;;;;164.45;53.30;;;;;;;3.82;73.35;103381.28;4990257;28;20030;-41
2022/01/25 08:07:14;;;;;;;161.98;55.35;;;;;;;3.79;72.55;103381.44;4979837;28;20494;-40
2022/01/25 08:09:39;;;;;;;153.43;53.03;;;;;;;3.86;72.91;103388.19;4992760;28;20026;-41
2022/01/25 08:12:05;;;;;;;149.57;50.75;;;;;;;3.94;73.10;103381.53;4992125;28;20023;-41
2022/01/25 08:14:30;;;;;;;158.10;53.22;;;;;;;3.94;72.49;103380.69;4994608;28;20037;-41
2022/01/25 08:16:55;;;;;;;159.13;53.63;;;;;;;3.90;72.38;103384.44;4992242;28;20026;-41
2022/01/25 08:19:21;;;;;;;157.88;52.75;;;;;;;3.94;72.17;103370.03;4986572;28;20037;-40
2022/01/25 08:21:47;;;;;;;150.30;51.10;;;;;;;3.95;72.22;103379.75;4992534;28;20026;-41
2022/01/25 08:24:14;;;;;;;146.63;50.80;;;;;;;3.84;72.26;103374.06;4993899;28;20122;-40
2022/01/25 08:26:41;;;;;;;158.68;53.00;;;;;;;3.87;72.87;103368.59;4985643;28;20520;-41
2022/01/25 08:29:07;;;;;;;145.32;51.22;;;;;;;3.94;71.64;103370.03;4991062;28;20022;-41
2022/01/25 08:31:33;;;;;;;146.75;49.97;;;;;;;3.96;72.00;103357.50;4993651;28;20033;-40
2022/01/25 08:33:59;;;;;;;146.30;50.55;;;;;;;3.93;71.79;103362.97;4993058;28;20030;-41
2022/01/25 08:36:24;;;;;;;144.43;49.13;;;;;;;3.95;72.31;103358.44;4989689;28;20058;-41
2022/01/25 08:38:50;;;;;;;147.60;50.15;;;;;;;3.93;71.56;103370.97;4987916;28;20068;-41
2022/01/25 08:41:17;;;;;;;147.38;51.38;;;;;;;3.88;72.35;103370.34;4992370;28;20041;-39
2022/01/25 08:43:42;;;;;;;153.35;51.83;;;;;;;3.74;72.50;103379.00;4993091;28;20027;-41
2022/01/25 08:46:07;;;;;;;161.18;52.35;;;;;;;3.80;72.20;103377.84;4993254;28;20486;-41
2022/01/25 08:48:33;;;;;;;147.65;51.65;;;;;;;3.77;72.25;103373.53;4972917;28;20080;-42
2022/01/25 08:50:58;;;;;;;139.15;48.50;;;;;;;3.69;71.40;103367.72;4989750;28;20114;-41
2022/01/25 08:53:24;;;;;;;149.88;50.75;;;;;;;3.55;72.03;103373.69;4986182;28;20086;-41
2022/01/25 08:55:50;;;;;;;150.32;50.13;;;;;;;3.54;72.28;103373.78;4990790;28;20022;-41
2022/01/25 08:58:15;;;;;;;161.85;51.78;;;;;;;3.46;72.61;103369.69;4978425;28;20056;-40
2022/01/25 09:00:41;;;;;;;150.23;48.88;;;;;;;3.45;73.14;103372.41;4988167;28;20393;-41
2022/01/25 09:03:06;;;;;;;161.65;53.70;;;;;;;3.56;72.95;103375.44;4989164;28;20086;-42
2022/01/25 09:05:32;;;;;;;159.30;52.83;;;;;;;3.60;73.04;103381.47;4990307;28;20030;-43
2022/01/25 09:07:58;;;;;;;159.40;51.08;;;;;;;3.57;74.34;103379.81;4991454;28;20031;-44
2022/01/25 09:10:26;;;;;;;156.07;51.03;;;;;;;3.62;72.80;103385.78;4991976;28;20470;-44
2022/01/25 09:12:51;;;;;;;153.02;50.20;;;;;;;3.53;73.15;103383.59;4990503;28;20114;-42
2022/01/25 09:15:16;;;;;;;161.27;51.58;;;;;;;3.56;73.84;103386.09;4983556;28;20086;-42
2022/01/25 09:17:42;;;;;;;154.88;52.53;;;;;;;3.64;73.14;103386.59;4985964;28;20041;-43
2022/01/25 09:20:08;;;;;;;151.63;51.00;;;;;;;3.61;73.30;103383.22;4990304;28;20034;-42
2022/01/25 09:22:34;;;;;;;161.75;53.00;;;;;;;3.56;73.49;103388.75;4991694;28;20062;-42
2022/01/25 09:24:59;;;;;;;156.10;50.75;;;;;;;3.43;73.53;103390.28;4991111;28;20023;-41
2022/01/25 09:27:24;;;;;;;154.23;51.33;;;;;;;3.50;74.21;103391.69;4991929;28;20040;-43
2022/01/25 09:29:50;;;;;;;153.98;52.50;;;;;;;3.51;73.91;103390.78;4991930;28;20029;-44
2022/01/25 09:32:15;;;;;;;157.02;53.20;;;;;;;3.52;74.55;103395.16;4992055;28;20041;-43
2022/01/25 09:34:41;;;;;;;155.55;51.63;;;;;;;3.54;73.80;103387.97;4991365;28;20153;-43
2022/01/25 09:37:06;;;;;;;168.73;53.38;;;;;;;3.60;72.88;103386.78;4990259;28;20061;-41
2022/01/25 09:39:31;;;;;;;162.63;52.42;;;;;;;3.68;72.92;103401.47;4980485;28;20030;-43
2022/01/25 09:41:57;;;;;;;160.90;53.15;;;;;;;3.77;72.76;103399.31;4972335;28;20030;-44
2022/01/25 09:44:23;;;;;;;153.85;53.17;;;;;;;3.87;72.87;103400.56;4985076;28;20124;-43
2022/01/25 09:46:53;;;;;;;162.38;53.17;;;;;;;3.89;73.72;103398.69;4990908;28;20032;-43
2022/01/25 09:49:19;;;;;;;172.23;55.42;;;;;;;4.04;73.17;103403.28;4980673;28;20031;-42
2022/01/25 09:51:44;;;;;;;154.98;51.97;;;;;;;4.08;71.61;103402.19;4990559;28;20113;-43
2022/01/25 09:54:10;;;;;;;166.18;53.50;;;;;;;4.10;71.72;103405.63;4989373;28;20042;-41
2022/01/25 09:56:35;;;;;;;161.20;52.40;;;;;;;4.08;72.23;103415.50;4991200;28;20029;-43
2022/01/25 09:59:01;;;;;;;165.52;53.10;;;;;;;4.17;72.51;103411.53;4991389;28;20068;-41
2022/01/25 10:01:28;;;;;;;162.18;52.47;;;;;;;4.21;71.76;103412.22;4991594;28;20037;-43
2022/01/25 10:03:54;;;;;;;164.52;54.10;;;;;;;4.25;71.58;103412.00;4990227;28;20061;-43
2022/01/25 10:06:21;;;;;;;161.55;53.13;;;;;;;4.27;71.40;103420.78;4983245;28;20065;-43
2022/01/25 10:08:50;;;;;;;169.05;55.42;;;;;;;4.17;72.08;103428.38;4986602;28;20029;-42
2022/01/25 10:11:16;;;;;;;162.60;52.45;;;;;;;4.22;71.88;103428.16;4989936;28;20110;-44
2022/01/25 10:13:48;;;;;;;160.95;53.13;;;;;;;4.26;71.67;103432.38;4989539;28;20034;-43
2022/01/25 10:16:17;;;;;;;166.75;54.42;;;;;;;4.26;71.57;103424.38;4988920;28;20088;-43
2022/01/25 10:18:51;;;;;;;160.18;52.45;;;;;;;4.31;71.37;103438.34;4989171;28;20041;-41
2022/01/25 10:21:24;;;;;;;169.82;56.75;;;;;;;4.26;71.55;103429.69;4984141;28;20116;-44
2022/01/25 10:24:14;;;;;;;163.57;53.10;;;;;;;4.26;71.18;103434.19;4991692;28;20569;-43
2022/01/25 10:26:47;;;;;;;163.48;54.42;;;;;;;4.25;71.43;103435.97;4990468;28;20053;-42
2022/01/25 10:29:15;;;;;;;171.57;55.67;;;;;;;4.23;72.56;103443.19;4989787;28;20030;-42
2022/01/25 10:31:44;;;;;;;171.60;52.78;;;;;;;4.22;72.63;103438.81;4991211;28;20027;-42
2022/01/25 10:34:12;;;;;;;167.23;54.53;;;;;;;4.19;72.32;103438.97;4990914;28;20037;-40
2022/01/25 10:36:44;;;;;;;;;;;;;;;4.25;72.79;103435.13;4989483;28;20054;-41
2022/01/25 10:39:09;;;;;;;159.35;52.88;;;;;;;4.24;70.41;103436.94;4989225;28;19925;-42
2022/01/25 10:41:35;;;;;;;165.57;53.70;;;;;;;4.17;71.13;103435.50;4976623;28;20026;-41
2022/01/25 10:44:00;;;;;;;167.25;52.28;;;;;;;4.26;70.68;103436.84;4990656;28;20034;-41
2022/01/25 10:46:31;;;;;;;165.35;54.55;;;;;;;4.37;70.98;103443.38;4989863;28;20494;-40
2022/01/25 10:48:57;;;;;;;164.05;54.60;;;;;;;4.30;70.34;103435.75;4990628;28;20543;-43
2022/01/25 10:51:40;;;;;;;171.35;55.30;;;;;;;4.27;70.68;103441.25;4988733;28;20030;-41
2022/01/25 10:54:05;;;;;;;177.43;55.88;;;;;;;4.27;71.65;103435.91;4990326;28;20362;-41
2022/01/25 10:56:40;;;;;;;165.52;52.28;;;;;;;4.38;70.66;103433.56;4989124;28;20037;-42
2022/01/25 10:59:07;;;;;;;175.23;54.60;;;;;;;4.44;70.51;103435.91;4989141;28;20493;-42
2022/01/25 11:01:36;;;;;;;178.82;56.00;;;;;;;4.43;70.55;103442.19;4988848;28;20030;-43
2022/01/25 11:04:08;;;;;;;165.40;53.75;;;;;;;4.39;70.33;103435.28;4970443;28;20039;-41
2022/01/25 11:06:33;;;;;;;178.25;55.53;;;;;;;4.37;71.09;103434.47;4985424;28;20035;-42
2022/01/25 11:09:03;;;;;;;164.27;52.47;;;;;;;4.30;69.84;103431.28;4989185;28;20037;-42
2022/01/25 11:11:36;;;;;;;175.55;54.90;;;;;;;4.21;70.90;103441.53;4977814;28;20033;-41
2022/01/25 11:16:47;;;;;;;170.85;54.75;;;;;;;4.15;71.30;103426.72;4986228;28;20038;-42
2022/01/25 11:19:12;;;;;;;178.02;56.05;;;;;;;4.09;71.07;103427.03;4988494;28;20064;-42
2022/01/25 11:21:38;;;;;;;185.02;55.63;;;;;;;4.13;71.55;103431.25;4987899;28;20084;-43
2022/01/25 11:24:04;;;;;;;182.82;55.63;;;;;;;4.17;72.62;103440.84;4986816;28;20113;-40
2022/01/25 11:26:29;;;;;;;180.93;54.72;;;;;;;4.42;71.62;103440.44;4991807;28;20030;-41
2022/01/25 11:28:55;;;;;;;173.68;56.03;;;;;;;4.42;70.77;103429.78;4992244;28;20046;-42
2022/01/25 11:31:22;;;;;;;182.75;55.15;;;;;;;4.43;70.27;103428.88;4988996;28;20038;-41
2022/01/25 11:33:48;;;;;;;188.70;55.80;;;;;;;4.38;69.85;103437.09;4986504;28;20030;-42
2022/01/25 11:36:14;;;;;;;177.00;55.25;;;;;;;4.29;71.25;103434.91;4974382;28;20434;-41
2022/01/25 11:38:47;;;;;;;181.15;55.40;;;;;;;4.41;70.84;103422.75;4990359;28;20035;-42
2022/01/25 11:41:15;;;;;;;181.27;55.15;;;;;;;4.59;70.20;103427.13;4988099;28;20495;-41
2022/01/25 11:43:44;;;;;;;;;;;;;;;4.51;69.78;103421.34;4990001;28;20030;-41
2022/01/25 11:46:09;;;;;;;175.82;52.90;;;;;;;4.59;69.90;103412.94;4992346;28;19957;-42
2022/01/25 11:48:41;;;;;;;165.10;53.22;;;;;;;4.57;70.37;103417.47;4992359;28;20461;-42
2022/01/25 11:51:13;;;;;;;180.55;56.13;;;;;;;4.49;70.62;103412.53;4991230;28;20030;-42
2022/01/25 11:53:42;;;;;;;182.00;55.33;;;;;;;4.42;70.67;103419.13;4992412;28;20038;-40
2022/01/25 11:56:09;;;;;;;182.32;54.92;;;;;;;4.45;71.38;103404.75;4992187;28;20113;-41
2022/01/25 11:58:36;;;;;;;175.17;56.67;;;;;;;4.34;70.83;103405.31;4991958;28;20040;-40
2022/01/25 12:01:09;;;;;;;186.02;54.30;;;;;;;4.47;70.99;103405.56;4990464;28;20807;-41
2022/01/25 12:03:46;;;;;;;182.77;54.58;;;;;;;4.51;70.34;103400.00;4986114;28;20042;-41
2022/01/25 12:06:21;;;;;;;172.80;55.83;;;;;;;4.54;70.54;103391.81;4991965;28;20133;-41
2022/01/25 12:11:31;;;;;;;179.55;54.55;;;;;;;4.65;70.78;103393.06;4992181;28;20066;-41
2022/01/25 12:14:20;;;;;;;179.82;54.63;;;;;;;4.68;70.46;103390.25;4975244;28;20036;-41
2022/01/25 12:16:49;;;;;;;175.23;52.53;;;;;;;4.70;70.17;103381.22;4991195;28;20066;-41
2022/01/25 12:19:16;;;;;;;171.73;55.13;;;;;;;4.70;69.14;103385.69;4991976;28;20137;-40
2022/01/25 12:21:44;;;;;;;182.18;54.58;;;;;;;4.65;70.23;103396.59;4990419;28;20455;-41
2022/01/25 12:24:29;;;;;;;175.20;54.25;;;;;;;4.64;69.35;103396.69;4990243;28;20026;-41
2022/01/25 12:27:21;;;;;;;173.82;52.08;;;;;;;4.65;69.56;103385.06;4991159;28;20037;-43
2022/01/25 12:29:43;;;;;;;177.95;51.58;;;;;;;4.57;69.22;103381.00;4992312;28;20042;-42
2022/01/25 12:32:33;;;;;;;182.20;52.80;;;;;;;4.48;70.30;103381.50;4992621;28;20169;-43
2022/01/25 12:35:14;;;;;;;171.07;51.63;;;;;;;4.48;70.16;103370.81;4992352;28;20081;-41
2022/01/25 12:37:43;;;;;;;178.13;53.22;;;;;;;4.44;71.18;103369.25;4990318;28;20035;-43
2022/01/25 12:40:28;;;;;;;181.55;53.80;;;;;;;4.49;71.12;103366.34;4989212;28;20121;-42
2022/01/25 12:43:30;;;;;;;171.15;53.50;;;;;;;4.62;70.57;103356.75;4980573;28;20030;-42
2022/01/25 12:46:25;;;;;;;185.98;53.05;;;;;;;4.54;69.79;103349.16;4930815;29;20518;-42
2022/01/25 12:48:52;;;;;;;176.90;51.17;;;;;;;4.58;70.37;103347.19;4989828;28;20199;-43
2022/01/25 12:51:20;;;;;;;171.77;52.85;;;;;;;4.65;69.80;103351.25;4991221;28;20034;-41
2022/01/25 12:53:46;;;;;;;;;;;;;;;4.70;70.27;103343.88;4991597;28;20034;-42
2022/01/25 12:56:15;;;;;;;181.13;53.13;;;;;;;4.72;69.91;103338.47;4990710;28;19922;-42
2022/01/25 12:58:42;;;;;;;183.35;54.40;;;;;;;4.66;69.10;103346.78;4990844;28;20030;-41